Time;durP1;ratioP1;P1;durP2;ratioP2;P2;SDS_P1;SDS_P2;PMS_P1;PMS_P2;Temp;Humidity;BMP_temperature;BMP_pressure;BME280_temperature;BME280_humidity;BME280_pressure;Samples;Min_cycle;Max_cycle;Signal;HPM_P1;HPM_P2
2021/11/24 00:01:12;;;;;;;7.75;4.45;;;5.10;99.90;;;;;;4946823;29;20031;-82
2021/11/24 00:03:38;;;;;;;6.18;4.30;;;5.10;99.90;;;;;;4946725;29;20043;-83
2021/11/24 00:06:04;;;;;;;24.60;7.93;;;5.10;99.90;;;;;;4946805;29;20020;-83
2021/11/24 00:08:29;;;;;;;16.38;6.15;;;5.10;99.90;;;;;;4946599;29;20023;-83
2021/11/24 00:10:55;;;;;;;36.38;12.15;;;5.10;99.90;;;;;;4946775;29;20083;-83
2021/11/24 00:13:21;;;;;;;14.05;7.13;;;5.10;99.90;;;;;;4945378;29;20020;-83
2021/11/24 00:15:47;;;;;;;10.30;5.30;;;5.10;99.90;;;;;;4946284;29;20224;-83
2021/11/24 00:18:12;;;;;;;8.30;4.80;;;5.10;99.90;;;;;;4946450;29;20031;-83
2021/11/24 00:20:38;;;;;;;7.50;4.60;;;5.10;99.90;;;;;;4946072;29;20323;-83
2021/11/24 00:23:04;;;;;;;11.13;5.38;;;5.10;99.90;;;;;;4946088;29;20027;-83
2021/11/24 00:25:30;;;;;;;8.68;4.65;;;5.10;99.90;;;;;;4946241;29;20087;-83
2021/11/24 00:27:56;;;;;;;6.65;3.75;;;5.10;99.90;;;;;;4946003;29;20080;-83
2021/11/24 00:30:21;;;;;;;7.90;4.80;;;5.10;99.90;;;;;;4946486;29;20163;-83
2021/11/24 00:32:47;;;;;;;10.88;4.63;;;5.00;99.90;;;;;;4946195;29;20023;-83
2021/11/24 00:35:13;;;;;;;6.65;4.88;;;5.00;99.90;;;;;;4944979;29;20031;-83
2021/11/24 00:37:39;;;;;;;6.63;4.20;;;5.00;99.90;;;;;;4946173;29;20243;-83
2021/11/24 00:40:06;;;;;;;8.07;4.88;;;4.90;99.90;;;;;;4945926;29;20023;-83
2021/11/24 00:42:32;;;;;;;6.43;3.97;;;4.90;99.90;;;;;;4946234;29;20024;-83
2021/11/24 00:44:57;;;;;;;7.13;4.50;;;4.90;99.90;;;;;;4945177;29;20274;-83
2021/11/24 00:47:23;;;;;;;8.52;5.38;;;4.90;99.90;;;;;;4946268;29;20031;-83
2021/11/24 00:49:49;;;;;;;12.55;6.90;;;4.90;99.90;;;;;;4945816;29;20020;-83
2021/11/24 00:52:14;;;;;;;11.45;6.40;;;4.90;99.90;;;;;;4946086;29;20027;-83
2021/11/24 00:54:40;;;;;;;10.85;6.35;;;5.00;99.90;;;;;;4945638;29;20059;-83
2021/11/24 00:57:06;;;;;;;10.85;5.47;;;5.00;99.90;;;;;;4945645;29;20281;-83
2021/11/24 00:59:32;;;;;;;7.45;5.07;;;5.00;99.90;;;;;;4945841;29;20027;-83
2021/11/24 01:01:57;;;;;;;11.80;5.88;;;5.00;99.90;;;;;;4945776;29;20156;-83
2021/11/24 01:04:23;;;;;;;15.40;8.13;;;5.00;99.90;;;;;;4945689;29;20227;-83
2021/11/24 01:06:49;;;;;;;9.20;5.47;;;5.10;99.90;;;;;;4945764;29;20032;-83
2021/11/24 01:09:18;;;;;;;7.93;4.50;;;5.10;99.90;;;;;;4945814;29;20091;-83
2021/11/24 01:11:44;;;;;;;11.98;5.85;;;5.20;99.90;;;;;;4945644;29;20020;-83
2021/11/24 01:14:09;;;;;;;10.75;5.32;;;5.30;99.90;;;;;;4945731;29;20024;-83
2021/11/24 01:16:35;;;;;;;10.75;5.88;;;5.30;99.90;;;;;;4944896;29;20023;-83
2021/11/24 01:19:02;;;;;;;11.75;5.50;;;5.40;99.90;;;;;;4945935;29;20012;-83
2021/11/24 01:21:28;;;;;;;15.18;7.07;;;5.40;99.90;;;;;;4945755;29;20094;-83
2021/11/24 01:23:54;;;;;;;16.35;8.13;;;5.50;99.90;;;;;;4945715;29;20149;-83
2021/11/24 01:26:21;;;;;;;22.75;10.43;;;5.50;99.90;;;;;;4945825;29;20027;-83
2021/11/24 01:28:47;;;;;;;19.00;8.27;;;5.50;99.90;;;;;;4945157;29;20071;-83
2021/11/24 01:31:12;;;;;;;16.95;7.65;;;5.50;99.90;;;;;;4944940;29;20086;-83
2021/11/24 01:33:38;;;;;;;13.38;7.35;;;5.60;99.90;;;;;;4944643;29;20324;-83
2021/11/24 01:36:04;;;;;;;8.93;5.07;;;5.60;99.90;;;;;;4944998;29;20299;-83
2021/11/24 01:38:30;;;;;;;8.52;4.18;;;5.60;99.90;;;;;;4944978;29;20147;-83
2021/11/24 01:40:55;;;;;;;8.18;4.63;;;5.70;99.90;;;;;;4949808;29;20040;-85
2021/11/24 01:43:21;;;;;;;7.28;4.47;;;5.70;99.90;;;;;;4956857;29;20011;-84
2021/11/24 01:45:47;;;;;;;6.47;4.38;;;5.70;99.90;;;;;;4950049;29;20054;-83
2021/11/24 01:48:13;;;;;;;6.80;4.25;;;5.70;99.90;;;;;;4956802;29;20024;-82
2021/11/24 01:50:39;;;;;;;9.63;4.38;;;5.70;99.90;;;;;;4957594;29;20023;-82
2021/11/24 01:53:05;;;;;;;6.00;4.03;;;5.70;99.90;;;;;;4957088;29;20223;-83
2021/11/24 01:55:32;;;;;;;5.75;4.15;;;5.70;99.90;;;;;;4954589;29;20270;-82
2021/11/24 01:57:58;;;;;;;4.95;3.78;;;5.70;99.90;;;;;;4944705;29;20027;-82
2021/11/24 02:00:28;;;;;;;7.25;4.15;;;5.70;99.90;;;;;;4944604;29;20028;-82
2021/11/24 02:02:54;;;;;;;6.28;4.30;;;5.70;99.90;;;;;;4944749;29;20027;-82
2021/11/24 02:05:21;;;;;;;5.75;3.75;;;5.70;99.90;;;;;;4944512;29;20290;-82
2021/11/24 02:07:47;;;;;;;5.55;3.78;;;5.70;99.90;;;;;;4943461;29;20375;-82
2021/11/24 02:10:13;;;;;;;5.53;3.72;;;5.60;99.90;;;;;;4944462;29;20019;-82
2021/11/24 02:12:39;;;;;;;6.60;3.78;;;5.70;99.90;;;;;;4956235;29;20039;-82
2021/11/24 02:15:07;;;;;;;8.20;4.25;;;5.70;99.90;;;;;;4956599;29;20031;-83
2021/11/24 02:17:33;;;;;;;8.15;4.07;;;5.70;99.90;;;;;;4955693;29;20031;-84
2021/11/24 02:19:59;;;;;;;7.93;4.07;;;5.70;99.90;;;;;;4952877;29;20027;-83
2021/11/24 02:22:24;;;;;;;6.97;3.60;;;5.70;99.90;;;;;;4945351;29;20354;-82
2021/11/24 02:24:50;;;;;;;7.07;3.83;;;5.80;99.90;;;;;;4944318;29;20118;-83
2021/11/24 02:27:16;;;;;;;5.68;4.00;;;5.70;99.90;;;;;;4944245;29;20311;-82
2021/11/24 02:29:44;;;;;;;8.15;3.88;;;5.70;99.90;;;;;;4944271;29;20015;-82
2021/11/24 02:32:11;;;;;;;6.22;3.97;;;5.80;99.90;;;;;;4943508;29;20023;-83
2021/11/24 02:34:37;;;;;;;6.40;3.88;;;5.70;99.90;;;;;;4942837;29;20214;-82
2021/11/24 02:37:03;;;;;;;6.10;3.75;;;5.70;99.90;;;;;;4944002;29;20031;-82
2021/11/24 02:39:30;;;;;;;7.15;4.20;;;5.80;99.90;;;;;;4944060;29;20020;-82
2021/11/24 02:41:57;;;;;;;7.35;4.35;;;5.80;99.90;;;;;;4944197;29;20310;-82
2021/11/24 02:44:26;;;;;;;7.97;4.60;;;5.80;99.90;;;;;;4943921;29;20035;-83
2021/11/24 02:47:19;;;;;;;6.18;4.15;;;5.80;99.90;;;;;;4944114;29;20031;-82
2021/11/24 02:49:48;;;;;;;7.65;4.10;;;5.80;99.90;;;;;;4941858;29;20083;-83
2021/11/24 02:52:19;;;;;;;7.18;4.53;;;5.80;99.90;;;;;;4944403;29;20027;-83
2021/11/24 02:54:54;;;;;;;7.22;4.00;;;5.80;99.90;;;;;;4943868;29;20039;-83
2021/11/24 02:57:33;;;;;;;5.60;4.03;;;5.80;99.90;;;;;;4943881;29;20053;-83
2021/11/24 02:59:59;;;;;;;6.15;3.50;;;5.80;99.90;;;;;;4944243;29;20051;-82
2021/11/24 03:02:26;;;;;;;8.02;4.18;;;5.70;99.90;;;;;;4944029;29;20127;-82
2021/11/24 03:04:54;;;;;;;4.95;3.63;;;5.70;99.90;;;;;;4942898;29;20059;-82
2021/11/24 03:07:19;;;;;;;6.63;4.15;;;5.70;99.90;;;;;;4943922;29;20363;-82
2021/11/24 03:09:45;;;;;;;6.95;4.20;;;5.70;99.90;;;;;;4943650;29;20023;-82
2021/11/24 03:12:11;;;;;;;8.15;4.07;;;5.70;99.90;;;;;;4943935;29;20260;-82
2021/11/24 03:14:37;;;;;;;6.68;4.30;;;5.80;99.90;;;;;;4943897;29;20032;-83
2021/11/24 03:17:03;;;;;;;5.75;3.80;;;5.70;99.90;;;;;;4943919;29;20236;-82
2021/11/24 03:19:30;;;;;;;6.22;4.00;;;5.70;99.90;;;;;;4944126;29;20067;-82
2021/11/24 03:21:56;;;;;;;7.43;4.40;;;5.70;99.90;;;;;;4943942;29;20020;-82
2021/11/24 03:24:21;;;;;;;8.45;4.28;;;5.80;99.90;;;;;;4943776;29;20030;-83
2021/11/24 03:26:47;;;;;;;9.38;4.00;;;5.80;99.90;;;;;;4943912;29;20023;-83
2021/11/24 03:29:13;;;;;;;5.80;4.35;;;5.70;99.90;;;;;;4943873;29;20035;-82
2021/11/24 03:31:39;;;;;;;6.75;3.95;;;5.70;99.90;;;;;;4943632;29;20086;-82
2021/11/24 03:34:06;;;;;;;7.15;4.15;;;5.60;99.90;;;;;;4943843;29;20028;-82
2021/11/24 03:36:32;;;;;;;8.07;4.18;;;5.70;99.90;;;;;;4943553;29;20039;-82
2021/11/24 03:38:58;;;;;;;7.03;4.80;;;5.70;99.90;;;;;;4943536;29;20027;-83
2021/11/24 03:41:24;;;;;;;6.45;4.43;;;5.60;99.90;;;;;;4943730;29;20028;-83
2021/11/24 03:43:49;;;;;;;9.48;4.63;;;5.60;99.90;;;;;;4943539;29;20027;-82
2021/11/24 03:46:15;;;;;;;7.90;4.40;;;5.50;99.90;;;;;;4943519;29;20022;-82
2021/11/24 03:48:41;;;;;;;7.05;4.47;;;5.40;99.90;;;;;;4943513;29;20026;-82
2021/11/24 03:51:07;;;;;;;7.68;4.53;;;5.40;99.90;;;;;;4943380;29;20020;-82
2021/11/24 03:53:34;;;;;;;7.45;4.78;;;5.40;99.90;;;;;;4943464;29;20331;-82
2021/11/24 03:56:00;;;;;;;6.30;4.28;;;5.30;99.90;;;;;;4945309;29;20095;-82
2021/11/24 03:58:26;;;;;;;7.45;4.43;;;5.30;99.90;;;;;;4946656;29;20047;-82
2021/11/24 04:00:52;;;;;;;7.53;3.92;;;5.30;99.90;;;;;;4946987;29;20114;-82
2021/11/24 04:03:18;;;;;;;5.43;3.80;;;5.20;99.90;;;;;;4946899;29;20254;-82
2021/11/24 04:05:43;;;;;;;6.70;4.03;;;5.20;99.90;;;;;;4946794;29;20028;-82
2021/11/24 04:08:09;;;;;;;7.35;4.03;;;5.20;99.90;;;;;;4946475;29;20015;-82
2021/11/24 04:10:35;;;;;;;6.75;3.90;;;5.10;99.90;;;;;;4946982;29;20339;-82
2021/11/24 04:13:00;;;;;;;5.47;3.50;;;5.10;99.90;;;;;;4945817;29;20020;-82
2021/11/24 04:15:26;;;;;;;6.72;3.83;;;5.00;99.90;;;;;;4946875;29;20032;-82
2021/11/24 04:17:52;;;;;;;5.88;3.90;;;4.90;99.90;;;;;;4946830;29;20083;-82
2021/11/24 04:20:19;;;;;;;7.30;4.20;;;4.90;99.90;;;;;;4946695;29;20030;-82
2021/11/24 04:22:45;;;;;;;6.30;3.72;;;4.90;99.90;;;;;;4946605;29;20067;-82
2021/11/24 04:25:12;;;;;;;8.25;4.50;;;4.80;99.90;;;;;;4946394;29;20027;-82
2021/11/24 04:27:38;;;;;;;6.47;3.65;;;4.80;99.90;;;;;;4946425;29;20032;-82
2021/11/24 04:30:05;;;;;;;5.10;3.63;;;4.90;99.90;;;;;;4946570;29;20204;-82
2021/11/24 04:32:32;;;;;;;7.75;3.90;;;4.90;99.90;;;;;;4946327;29;20023;-82
2021/11/24 04:34:57;;;;;;;6.07;4.13;;;4.80;99.90;;;;;;4946303;29;20031;-82
2021/11/24 04:37:23;;;;;;;5.50;3.38;;;4.80;99.90;;;;;;4946337;29;20029;-82
2021/11/24 04:39:49;;;;;;;5.68;3.97;;;4.90;99.90;;;;;;4946100;29;20028;-82
2021/11/24 04:42:14;;;;;;;6.90;3.72;;;4.90;99.90;;;;;;4945550;29;20027;-82
2021/11/24 04:44:40;;;;;;;7.90;4.28;;;4.90;99.90;;;;;;4946026;29;20027;-82
2021/11/24 04:47:06;;;;;;;6.03;3.35;;;4.80;99.90;;;;;;4945903;29;20087;-82
2021/11/24 04:49:31;;;;;;;9.80;3.45;;;4.70;99.90;;;;;;4946017;29;20043;-82
2021/11/24 04:51:57;;;;;;;6.63;3.80;;;4.70;99.90;;;;;;4945934;29;20353;-82
2021/11/24 04:54:23;;;;;;;6.25;4.05;;;4.70;99.90;;;;;;4945827;29;20082;-82
2021/11/24 04:56:49;;;;;;;5.93;4.10;;;4.60;99.90;;;;;;4945636;29;20046;-82
2021/11/24 04:59:15;;;;;;;5.85;3.63;;;4.50;99.90;;;;;;4946119;29;20031;-82
2021/11/24 05:01:42;;;;;;;10.75;4.97;;;4.50;99.90;;;;;;4945842;29;20016;-82
2021/11/24 05:04:07;;;;;;;5.40;3.63;;;4.50;99.90;;;;;;4944761;29;20095;-82
2021/11/24 05:06:33;;;;;;;8.40;3.85;;;4.50;99.90;;;;;;4945825;29;20031;-82
2021/11/24 05:09:02;;;;;;;6.03;3.50;;;4.40;99.90;;;;;;4945826;29;20012;-82
2021/11/24 05:11:28;;;;;;;6.28;4.05;;;4.30;99.90;;;;;;4945937;29;20051;-82
2021/11/24 05:13:58;;;;;;;6.25;3.75;;;4.30;99.90;;;;;;4945611;29;20028;-82
2021/11/24 05:16:27;;;;;;;6.22;3.85;;;4.20;99.90;;;;;;4945107;29;20032;-82
2021/11/24 05:18:53;;;;;;;5.90;3.85;;;4.20;99.90;;;;;;4945862;29;20027;-82
2021/11/24 05:23:49;;;;;;;5.65;3.58;;;4.10;99.90;;;;;;4945460;29;20307;-82
2021/11/24 05:26:15;;;;;;;6.00;4.18;;;4.10;99.90;;;;;;4945577;29;20023;-82
2021/11/24 05:28:40;;;;;;;8.63;3.92;;;4.10;99.90;;;;;;4943032;29;20035;-82
2021/11/24 05:31:08;;;;;;;8.75;4.30;;;4.10;99.90;;;;;;4934880;29;20024;-82
2021/11/24 05:33:34;;;;;;;7.10;4.10;;;4.00;99.90;;;;;;4936267;29;20690;-82
2021/11/24 05:36:00;;;;;;;9.10;4.40;;;4.00;99.90;;;;;;4938358;29;20396;-82
2021/11/24 05:38:26;;;;;;;8.20;4.30;;;4.00;99.90;;;;;;4933298;29;20020;-84
2021/11/24 05:40:51;;;;;;;7.32;4.47;;;3.90;99.90;;;;;;4931308;29;20020;-84
2021/11/24 05:43:21;;;;;;;11.80;4.53;;;3.90;99.90;;;;;;4931513;29;20030;-83
2021/11/24 05:48:19;;;;;;;8.80;4.97;;;3.90;99.90;;;;;;4933638;29;20028;-82
2021/11/24 05:50:46;;;;;;;6.80;4.90;;;3.90;99.90;;;;;;4931039;29;20026;-82
2021/11/24 05:53:15;;;;;;;10.18;4.82;;;3.90;99.90;;;;;;4930721;29;20078;-83
2021/11/24 05:55:42;;;;;;;7.93;4.50;;;3.90;99.90;;;;;;4927575;29;20052;-82
2021/11/24 05:58:08;;;;;;;7.07;4.30;;;3.80;99.90;;;;;;4923404;29;20400;-83
2021/11/24 06:00:34;;;;;;;9.15;5.32;;;3.90;99.90;;;;;;4914297;29;20024;-82
2021/11/24 06:03:00;;;;;;;10.95;5.57;;;3.90;99.90;;;;;;4914558;29;20428;-85
2021/11/24 06:05:26;;;;;;;9.07;5.20;;;3.90;99.90;;;;;;4914518;29;20031;-83
2021/11/24 06:07:51;;;;;;;8.95;5.60;;;3.90;99.90;;;;;;4914542;29;20143;-82
2021/11/24 06:10:17;;;;;;;9.25;5.72;;;3.80;99.90;;;;;;4914416;29;20044;-82
2021/11/24 06:12:43;;;;;;;11.93;5.53;;;3.90;99.90;;;;;;4914395;29;20036;-82
2021/11/24 06:15:14;;;;;;;11.07;5.68;;;3.90;99.90;;;;;;4914653;29;20044;-82
2021/11/24 06:17:40;;;;;;;10.00;5.90;;;3.80;99.90;;;;;;4914215;29;20064;-82
2021/11/24 06:20:06;;;;;;;13.52;5.95;;;3.80;99.90;;;;;;4913280;29;20080;-82
2021/11/24 06:22:32;;;;;;;12.98;6.40;;;3.90;99.90;;;;;;4914727;29;20012;-82
2021/11/24 06:24:57;;;;;;;9.55;6.00;;;3.80;99.90;;;;;;4914483;29;20032;-82
2021/11/24 06:27:23;;;;;;;12.10;6.35;;;3.80;99.90;;;;;;4914360;29;20020;-82
2021/11/24 06:29:49;;;;;;;12.85;5.97;;;3.70;99.90;;;;;;4921682;29;20167;-85
2021/11/24 06:32:14;;;;;;;11.43;6.25;;;3.70;99.90;;;;;;4923253;29;20384;-88
2021/11/24 06:34:40;;;;;;;10.77;6.80;;;3.70;99.90;;;;;;4931401;29;20123;-86
2021/11/24 06:37:05;;;;;;;12.20;6.15;;;3.70;99.90;;;;;;4933066;29;20035;-86
2021/11/24 06:39:31;;;;;;;8.57;5.85;;;3.70;99.90;;;;;;4932673;29;20082;-86
2021/11/24 06:41:59;;;;;;;9.98;6.00;;;3.60;99.90;;;;;;4930849;29;20242;-86
2021/11/24 06:44:25;;;;;;;10.10;6.50;;;3.60;99.90;;;;;;4931323;29;20030;-85
2021/11/24 06:46:51;;;;;;;15.68;6.60;;;3.60;99.90;;;;;;4932639;29;20483;-85
2021/11/24 06:49:17;;;;;;;9.13;6.00;;;3.60;99.90;;;;;;4932560;29;20031;-85
2021/11/24 06:51:43;;;;;;;8.48;5.95;;;3.60;99.90;;;;;;4927749;29;20540;-85
2021/11/24 06:54:09;;;;;;;14.85;6.88;;;3.60;99.90;;;;;;4929118;29;20028;-84
2021/11/24 06:56:36;;;;;;;13.05;7.45;;;3.60;99.90;;;;;;4932118;29;20102;-88
2021/11/24 06:59:01;;;;;;;11.13;7.07;;;3.60;99.90;;;;;;4932982;29;20027;-85
2021/11/24 07:01:27;;;;;;;14.85;7.32;;;3.60;99.90;;;;;;4932775;29;20031;-86
2021/11/24 07:03:53;;;;;;;12.05;7.28;;;3.60;99.90;;;;;;4929993;29;20130;-86
2021/11/24 07:06:18;;;;;;;13.85;6.85;;;3.60;99.90;;;;;;4931583;29;20083;-86
2021/11/24 07:08:44;;;;;;;14.02;7.07;;;3.60;99.90;;;;;;4931294;29;20028;-86
2021/11/24 07:11:10;;;;;;;13.65;7.30;;;3.60;99.90;;;;;;4932139;29;20044;-86
2021/11/24 07:13:35;;;;;;;14.02;7.07;;;3.60;99.90;;;;;;4930057;29;20428;-85
2021/11/24 07:16:01;;;;;;;14.40;7.03;;;3.50;99.90;;;;;;4930382;29;20123;-86
2021/11/24 07:18:27;;;;;;;15.00;7.25;;;3.50;99.90;;;;;;4930317;29;20031;-86
2021/11/24 07:20:52;;;;;;;11.57;6.75;;;3.50;99.90;;;;;;4930496;29;20027;-86
2021/11/24 07:23:18;;;;;;;12.88;7.22;;;3.50;99.90;;;;;;4930380;29;20034;-85
2021/11/24 07:25:44;;;;;;;11.80;6.97;;;3.40;99.90;;;;;;4932751;29;20397;-86
2021/11/24 07:28:10;;;;;;;13.50;7.60;;;3.40;99.90;;;;;;4930920;29;20036;-85
2021/11/24 07:30:35;;;;;;;12.95;6.85;;;3.40;99.90;;;;;;4926086;29;20508;-86
2021/11/24 07:33:02;;;;;;;11.20;6.53;;;3.50;99.90;;;;;;4936665;29;20034;-85
2021/11/24 07:35:28;;;;;;;16.30;6.88;;;3.50;99.90;;;;;;4918962;29;20028;-85
2021/11/24 07:37:54;;;;;;;11.48;7.25;;;3.50;99.90;;;;;;4918969;29;20036;-85
2021/11/24 07:40:21;;;;;;;19.45;7.55;;;3.50;99.90;;;;;;4917923;29;20039;-86
2021/11/24 07:42:49;;;;;;;13.07;6.18;;;3.40;99.90;;;;;;4918481;29;20024;-85
2021/11/24 07:45:15;;;;;;;14.68;6.63;;;3.50;99.90;;;;;;4917326;29;20016;-84
2021/11/24 07:47:40;;;;;;;13.55;7.57;;;3.50;99.90;;;;;;4917693;29;20031;-85
2021/11/24 07:50:07;;;;;;;12.27;7.53;;;3.50;99.90;;;;;;4916482;29;20059;-86
2021/11/24 07:52:32;;;;;;;14.63;7.72;;;3.50;99.90;;;;;;4916016;29;20032;-86
2021/11/24 07:54:58;;;;;;;14.98;7.35;;;3.40;99.90;;;;;;4918004;29;20104;-86
2021/11/24 07:57:24;;;;;;;14.18;7.45;;;3.40;99.90;;;;;;4917576;29;20486;-86
2021/11/24 07:59:49;;;;;;;12.30;7.25;;;3.50;99.90;;;;;;4918667;29;20032;-85
2021/11/24 08:02:15;;;;;;;11.40;7.35;;;3.50;99.90;;;;;;4917204;29;20083;-86
2021/11/24 08:04:41;;;;;;;13.73;9.13;;;3.50;99.90;;;;;;4915622;29;20122;-85
2021/11/24 08:07:07;;;;;;;13.50;7.40;;;3.60;99.90;;;;;;4917099;29;20493;-84
2021/11/24 08:09:33;;;;;;;16.05;9.02;;;3.60;99.90;;;;;;4917407;29;20071;-85
2021/11/24 08:12:00;;;;;;;12.98;8.30;;;3.60;99.90;;;;;;4915478;29;20402;-86
2021/11/24 08:14:26;;;;;;;14.77;8.18;;;3.60;99.90;;;;;;4916995;29;20088;-84
2021/11/24 08:16:53;;;;;;;13.63;7.80;;;3.60;99.90;;;;;;4916840;29;20438;-84
2021/11/24 08:19:19;;;;;;;14.90;7.85;;;3.70;99.90;;;;;;4916332;29;20164;-85
2021/11/24 08:21:44;;;;;;;17.70;7.90;;;3.60;99.90;;;;;;4917551;29;20086;-83
2021/11/24 08:24:11;;;;;;;15.18;9.20;;;3.60;99.90;;;;;;4917644;29;20118;-86
2021/11/24 08:26:37;;;;;;;18.33;9.68;;;3.70;99.90;;;;;;4917713;29;20024;-85
2021/11/24 08:29:03;;;;;;;16.27;9.82;;;3.70;99.90;;;;;;4916111;29;20032;-85
2021/11/24 08:31:29;;;;;;;24.98;12.40;;;3.70;99.90;;;;;;4915422;29;20024;-85
2021/11/24 08:33:55;;;;;;;23.35;12.95;;;3.80;99.90;;;;;;4914469;29;20028;-84
2021/11/24 08:36:21;;;;;;;25.00;12.95;;;3.80;99.90;;;;;;4917565;29;20513;-85
2021/11/24 08:38:46;;;;;;;36.03;16.85;;;3.80;99.90;;;;;;4916687;29;20496;-86
2021/11/24 08:41:13;;;;;;;24.83;12.55;;;3.90;99.90;;;;;;4915889;29;20048;-86
2021/11/24 08:43:40;;;;;;;13.60;8.85;;;3.90;99.90;;;;;;4916296;29;20122;-84
2021/11/24 08:46:06;;;;;;;13.15;8.38;;;4.00;99.90;;;;;;4917095;29;20039;-84
2021/11/24 08:48:32;;;;;;;12.82;8.07;;;4.00;99.90;;;;;;4918204;29;20063;-85
2021/11/24 08:50:58;;;;;;;14.35;8.73;;;4.10;99.90;;;;;;4916773;29;20035;-83
2021/11/24 08:53:25;;;;;;;13.70;8.40;;;4.10;99.90;;;;;;4916478;29;20036;-84
2021/11/24 08:55:51;;;;;;;15.02;7.97;;;4.10;99.90;;;;;;4915421;29;20056;-84
2021/11/24 08:58:17;;;;;;;14.32;8.05;;;4.10;99.90;;;;;;4916073;29;20028;-84
2021/11/24 09:00:43;;;;;;;14.27;7.78;;;4.20;99.90;;;;;;4916766;29;20598;-84
2021/11/24 09:03:10;;;;;;;16.10;8.85;;;4.20;99.90;;;;;;4915950;29;20035;-85
2021/11/24 09:05:36;;;;;;;15.02;8.27;;;4.10;99.90;;;;;;4916348;29;20020;-84
2021/11/24 09:08:03;;;;;;;17.15;8.30;;;4.10;99.90;;;;;;4915403;29;20461;-85
2021/11/24 09:10:30;;;;;;;15.25;8.43;;;4.10;99.90;;;;;;4916906;29;20151;-86
2021/11/24 09:12:57;;;;;;;14.45;7.97;;;4.10;99.90;;;;;;4916575;29;20024;-87
2021/11/24 09:15:22;;;;;;;16.30;9.00;;;4.20;99.90;;;;;;4917818;29;20032;-84
2021/11/24 09:17:48;;;;;;;16.13;9.02;;;4.20;99.90;;;;;;4916211;29;20087;-85
2021/11/24 09:20:14;;;;;;;18.00;8.57;;;4.10;99.90;;;;;;4916422;29;20059;-84
2021/11/24 09:22:43;;;;;;;14.52;8.52;;;4.10;99.90;;;;;;4915772;29;20047;-86
2021/11/24 09:25:13;;;;;;;15.10;9.15;;;4.10;99.90;;;;;;4915500;29;20147;-84
2021/11/24 09:30:17;;;;;;;14.10;8.73;;;4.20;99.90;;;;;;4916707;29;20020;-84
2021/11/24 09:32:44;;;;;;;17.58;8.80;;;4.10;99.90;;;;;;4915794;29;20536;-85
2021/11/24 09:35:10;;;;;;;16.02;9.80;;;4.10;99.90;;;;;;4914661;29;20514;-85
2021/11/24 09:37:37;;;;;;;16.92;9.10;;;4.20;99.90;;;;;;4915331;29;20036;-85
2021/11/24 09:40:05;;;;;;;16.63;9.75;;;4.20;99.90;;;;;;4915683;29;20028;-87
2021/11/24 09:42:34;;;;;;;17.58;9.82;;;4.30;99.90;;;;;;4917636;29;20024;-85
2021/11/24 09:45:01;;;;;;;19.50;9.88;;;4.50;99.90;;;;;;4916026;29;20032;-85
2021/11/24 09:47:27;;;;;;;18.52;9.90;;;4.60;99.90;;;;;;4913161;29;20036;-85
2021/11/24 09:49:58;;;;;;;15.77;9.30;;;4.60;99.90;;;;;;4915083;29;20528;-85
2021/11/24 09:52:25;;;;;;;16.40;8.90;;;4.80;99.90;;;;;;4913840;29;20025;-85
2021/11/24 09:54:51;;;;;;;13.57;8.82;;;5.00;99.90;;;;;;4913810;29;20032;-85
2021/11/24 09:57:18;;;;;;;15.25;9.68;;;5.10;99.90;;;;;;4914133;29;20048;-85
2021/11/24 09:59:45;;;;;;;16.38;8.93;;;5.10;99.90;;;;;;4913931;29;20025;-85
2021/11/24 10:02:13;;;;;;;15.48;8.63;;;5.20;99.90;;;;;;4914304;29;20035;-85
2021/11/24 10:04:44;;;;;;;16.52;8.85;;;5.20;99.90;;;;;;4913848;29;20047;-86
2021/11/24 10:07:16;;;;;;;20.70;9.15;;;5.30;99.90;;;;;;4914173;29;20107;-86
2021/11/24 10:09:42;;;;;;;19.88;10.43;;;5.40;99.90;;;;;;4912569;29;20118;-86
2021/11/24 10:12:10;;;;;;;14.57;9.98;;;5.50;99.90;;;;;;4913846;29;20036;-87
2021/11/24 10:14:37;;;;;;;17.75;10.38;;;5.50;99.90;;;;;;4913372;29;20466;-86
2021/11/24 10:17:05;;;;;;;19.70;10.10;;;5.60;99.90;;;;;;4927205;29;20549;-85
2021/11/24 10:19:31;;;;;;;18.15;10.55;;;5.70;99.90;;;;;;4915223;29;20028;-86
2021/11/24 10:22:01;;;;;;;16.00;9.98;;;5.80;99.90;;;;;;4913162;29;20046;-85
2021/11/24 10:24:53;;;;;;;16.42;9.50;;;5.90;99.90;;;;;;4926198;29;20020;-85
2021/11/24 10:27:33;;;;;;;14.63;9.25;;;6.10;99.90;;;;;;4914036;29;20024;-85
2021/11/24 10:29:59;;;;;;;16.83;10.05;;;6.20;99.90;;;;;;4932284;29;20059;-85
2021/11/24 10:32:28;;;;;;;18.48;10.18;;;6.40;99.90;;;;;;4920016;29;20485;-85
2021/11/24 10:34:57;;;;;;;16.70;9.82;;;6.50;99.90;;;;;;4912943;29;20032;-85
2021/11/24 10:37:24;;;;;;;17.58;10.63;;;6.60;99.90;;;;;;4914561;29;20040;-85
2021/11/24 10:39:58;;;;;;;17.25;9.45;;;6.80;99.90;;;;;;4914654;29;20080;-85
2021/11/24 10:42:34;;;;;;;20.55;11.57;;;6.90;99.90;;;;;;4913672;29;20020;-85
2021/11/24 10:45:13;;;;;;;19.67;11.43;;;7.10;99.90;;;;;;4912058;29;20032;-85
2021/11/24 10:47:53;;;;;;;18.05;12.32;;;7.30;99.90;;;;;;4913349;29;20024;-85
2021/11/24 10:50:25;;;;;;;28.45;16.02;;;7.60;99.90;;;;;;4913546;29;20028;-85
2021/11/24 10:52:51;;;;;;;31.08;15.70;;;7.80;99.90;;;;;;4913880;29;20025;-85
2021/11/24 10:55:25;;;;;;;20.38;12.10;;;7.80;99.90;;;;;;4913658;29;20038;-85
2021/11/24 10:58:05;;;;;;;18.10;10.82;;;8.00;99.90;;;;;;4914188;29;20497;-85
2021/11/24 11:00:46;;;;;;;17.10;11.40;;;8.20;99.90;;;;;;4914621;29;20036;-85
2021/11/24 11:03:13;;;;;;;18.65;11.55;;;8.20;99.90;;;;;;4914038;29;20064;-85
2021/11/24 11:05:41;;;;;;;15.32;10.35;;;8.20;99.90;;;;;;4915858;29;20040;-86
2021/11/24 11:08:09;;;;;;;17.73;11.13;;;8.10;99.90;;;;;;4919941;29;20032;-85
2021/11/24 11:10:39;;;;;;;16.20;10.93;;;8.00;99.90;;;;;;4935706;29;20027;-85
2021/11/24 11:13:15;;;;;;;21.55;11.43;;;7.90;99.90;;;;;;4936448;29;20026;-85
2021/11/24 11:15:45;;;;;;;21.90;11.93;;;7.80;99.90;;;;;;4935840;29;20046;-86
2021/11/24 11:18:11;;;;;;;17.38;10.98;;;7.80;99.90;;;;;;4936004;29;20625;-85
2021/11/24 11:20:43;;;;;;;20.58;11.98;;;7.90;99.90;;;;;;4934478;29;20342;-85
2021/11/24 11:23:11;;;;;;;22.52;12.15;;;7.90;99.90;;;;;;4935817;29;20034;-86
2021/11/24 11:26:05;;;;;;;20.23;11.77;;;7.90;99.90;;;;;;4936066;29;20032;-86
2021/11/24 11:28:41;;;;;;;17.65;12.15;;;7.90;99.90;;;;;;4926131;29;20016;-86
2021/11/24 11:31:09;;;;;;;15.85;10.80;;;7.90;99.90;;;;;;4916138;29;20119;-85
2021/11/24 11:33:38;;;;;;;17.08;10.55;;;8.00;99.90;;;;;;4916992;29;20032;-85
2021/11/24 11:36:08;;;;;;;15.68;10.65;;;8.00;99.90;;;;;;4927945;29;20032;-86
2021/11/24 11:38:36;;;;;;;16.83;11.23;;;7.90;99.90;;;;;;4932031;29;20059;-86
2021/11/24 11:41:03;;;;;;;16.20;11.00;;;8.00;99.90;;;;;;4946458;29;20223;-86
2021/11/24 11:43:30;;;;;;;15.25;9.80;;;8.10;99.90;;;;;;4944451;29;20327;-87
2021/11/24 11:45:56;;;;;;;15.48;10.10;;;8.20;99.90;;;;;;4947224;29;20362;-87
2021/11/24 11:48:30;;;;;;;15.05;10.23;;;8.30;99.90;;;;;;4921551;29;20035;-87
2021/11/24 11:51:06;;;;;;;15.57;10.48;;;8.30;99.90;;;;;;4935903;29;20085;-87
2021/11/24 11:53:45;;;;;;;15.45;10.85;;;8.40;99.90;;;;;;4935726;29;20035;-87
2021/11/24 11:56:15;;;;;;;17.88;10.32;;;8.50;99.90;;;;;;4935297;29;20074;-87
2021/11/24 11:58:48;;;;;;;16.92;11.25;;;8.50;99.90;;;;;;4928410;29;20119;-87
2021/11/24 12:01:17;;;;;;;17.25;11.35;;;8.50;99.90;;;;;;4916868;29;20481;-88
2021/11/24 12:04:16;;;;;;;14.13;10.70;;;8.60;99.90;;;;;;4917437;29;20035;-87
2021/11/24 12:06:42;;;;;;;16.30;10.88;;;8.80;99.90;;;;;;4917403;29;20024;-84
2021/11/24 12:09:30;;;;;;;15.00;10.15;;;9.00;99.90;;;;;;4926976;29;20400;-85
2021/11/24 12:12:05;;;;;;;16.02;10.60;;;9.10;99.90;;;;;;4935941;29;20111;-85
2021/11/24 12:14:46;;;;;;;17.60;11.05;;;9.10;99.90;;;;;;4935513;29;20038;-85
2021/11/24 12:20:11;;;;;;;16.58;11.77;;;9.20;99.90;;;;;;4935721;29;20042;-85
2021/11/24 12:22:49;;;;;;;19.20;11.23;;;9.20;99.90;;;;;;4934796;29;20564;-87
2021/11/24 12:25:23;;;;;;;13.88;10.60;;;9.20;99.90;;;;;;4933970;29;20035;-87
2021/11/24 12:27:55;;;;;;;15.75;10.82;;;9.40;99.90;;;;;;4936055;29;20028;-89
2021/11/24 12:30:35;;;;;;;15.95;10.85;;;9.20;99.90;;;;;;4935617;29;20598;-89
2021/11/24 12:33:05;;;;;;;16.48;10.88;;;9.30;99.90;;;;;;4933960;29;20027;-89
2021/11/24 12:35:34;;;;;;;17.08;10.50;;;9.20;99.90;;;;;;4934287;29;20227;-89
2021/11/24 12:38:01;;;;;;;14.18;10.35;;;9.30;99.90;;;;;;4933957;29;20169;-89
2021/11/24 12:40:31;;;;;;;19.75;12.27;;;9.30;99.90;;;;;;4934012;29;20039;-89
2021/11/24 12:42:58;;;;;;;15.55;10.77;;;9.40;99.90;;;;;;4935035;29;20028;-90
2021/11/24 12:45:24;;;;;;;34.50;17.17;;;9.40;99.90;;;;;;4933152;29;20027;-89
2021/11/24 12:48:01;;;;;;;30.88;15.32;;;9.40;99.90;;;;;;4933273;29;20028;-90
2021/11/24 12:50:28;;;;;;;25.92;14.48;;;9.30;99.90;;;;;;4932833;29;20512;-90
2021/11/24 12:52:58;;;;;;;19.55;12.38;;;9.20;99.90;;;;;;4932904;29;20030;-89
2021/11/24 12:55:25;;;;;;;19.55;11.55;;;9.30;99.90;;;;;;4932819;29;20042;-89
2021/11/24 12:57:51;;;;;;;28.65;15.15;;;9.30;99.90;;;;;;4934335;29;20036;-90
2021/11/24 13:00:31;;;;;;;16.13;11.38;;;9.30;99.90;;;;;;4933779;29;20023;-86